Time;durP1;ratioP1;P1;durP2;ratioP2;P2;SDS_P1;SDS_P2;PMS_P1;PMS_P2;Temp;Humidity;BMP_temperature;BMP_pressure;BME280_temperature;BME280_humidity;BME280_pressure;Samples;Min_cycle;Max_cycle;Signal;HPM_P1;HPM_P2
2022/08/03 00:01:07;;;;;;;2.05;1.70;;;24.50;45.10;;;;;;4980411;28;20066;-44
2022/08/03 00:03:36;;;;;;;2.22;1.52;;;24.50;45.20;;;;;;4984694;28;20065;-44
2022/08/03 00:06:03;;;;;;;3.85;1.92;;;24.50;45.20;;;;;;4983360;28;20065;-44
2022/08/03 00:08:30;;;;;;;2.03;1.67;;;24.50;45.30;;;;;;4984720;28;20065;-42
2022/08/03 00:10:57;;;;;;;1.92;1.60;;;24.40;45.40;;;;;;4981380;28;20513;-42
2022/08/03 00:13:25;;;;;;;2.47;1.60;;;24.40;45.50;;;;;;4981911;28;20061;-41
2022/08/03 00:15:52;;;;;;;2.00;1.77;;;24.40;45.70;;;;;;4983052;28;20506;-43
2022/08/03 00:18:19;;;;;;;3.38;1.83;;;24.30;45.70;;;;;;4984664;28;20046;-44
2022/08/03 00:20:48;;;;;;;2.33;1.85;;;24.30;45.70;;;;;;4982486;28;20053;-42
2022/08/03 00:23:16;;;;;;;4.38;1.70;;;24.30;45.90;;;;;;4983807;28;20427;-41
2022/08/03 00:25:43;;;;;;;2.38;1.60;;;24.30;45.90;;;;;;4981574;28;20057;-45
2022/08/03 00:28:11;;;;;;;2.58;1.98;;;24.20;45.90;;;;;;4982518;28;20065;-43
2022/08/03 00:30:38;;;;;;;2.22;1.60;;;24.20;45.80;;;;;;4980754;28;20042;-42
2022/08/03 00:33:05;;;;;;;4.82;2.15;;;24.20;45.80;;;;;;4983246;28;20058;-45
2022/08/03 00:35:32;;;;;;;4.07;2.10;;;24.20;46.00;;;;;;4982997;28;20072;-42
2022/08/03 00:38:01;;;;;;;3.25;2.00;;;24.10;46.10;;;;;;4984588;28;20415;-41
2022/08/03 00:40:28;;;;;;;3.08;1.92;;;24.10;46.10;;;;;;4983358;28;20062;-42
2022/08/03 00:42:57;;;;;;;2.65;1.90;;;24.10;46.10;;;;;;4982561;28;20058;-44
2022/08/03 00:45:25;;;;;;;3.28;1.77;;;24.00;46.10;;;;;;4981117;28;20058;-43
2022/08/03 00:47:53;;;;;;;3.45;2.10;;;24.00;46.30;;;;;;4984219;28;20058;-43
2022/08/03 00:50:22;;;;;;;2.13;1.92;;;24.00;46.30;;;;;;4980262;28;20058;-43
2022/08/03 00:52:51;;;;;;;2.20;1.70;;;24.00;46.40;;;;;;4981363;28;20062;-43
2022/08/03 00:55:21;;;;;;;2.53;1.98;;;24.00;46.50;;;;;;4982400;28;20057;-42
2022/08/03 00:57:48;;;;;;;2.03;1.73;;;23.90;46.60;;;;;;4982156;28;20525;-44
2022/08/03 01:00:20;;;;;;;4.03;1.83;;;23.90;46.60;;;;;;4979807;28;20042;-44
2022/08/03 01:02:47;;;;;;;2.00;1.70;;;23.90;46.70;;;;;;4983365;28;20058;-43
2022/08/03 01:05:15;;;;;;;3.13;2.15;;;23.80;46.60;;;;;;4982178;28;20064;-42
2022/08/03 01:07:53;;;;;;;1.90;1.70;;;23.80;46.70;;;;;;4983211;28;20073;-42
2022/08/03 01:10:35;;;;;;;3.33;1.73;;;23.80;46.70;;;;;;4981556;28;20054;-42
2022/08/03 01:13:07;;;;;;;2.08;1.88;;;23.70;46.80;;;;;;4982224;28;20061;-42
2022/08/03 01:15:43;;;;;;;6.95;2.17;;;23.70;46.80;;;;;;4982134;28;20069;-42
2022/08/03 01:18:17;;;;;;;3.45;2.10;;;23.70;46.90;;;;;;4983759;28;20534;-42
2022/08/03 01:20:47;;;;;;;;;;;23.70;47.00;;;;;;4982288;28;20411;-45
2022/08/03 01:23:40;;;;;;;2.53;1.90;;;23.70;46.70;;;;;;4980925;28;20302;-41
2022/08/03 01:26:25;;;;;;;2.10;1.77;;;23.70;47.10;;;;;;4980021;28;20058;-45
2022/08/03 01:29:11;;;;;;;3.90;2.03;;;23.60;47.00;;;;;;4981247;28;20065;-47
2022/08/03 01:31:44;;;;;;;2.85;1.95;;;23.60;47.30;;;;;;4978024;28;20058;-42
2022/08/03 01:34:15;;;;;;;2.35;1.70;;;23.60;47.30;;;;;;4981953;28;20061;-44
2022/08/03 01:36:48;;;;;;;4.32;2.08;;;23.50;47.20;;;;;;4981438;28;20061;-42
2022/08/03 01:39:16;;;;;;;2.00;1.80;;;23.50;47.40;;;;;;4977265;28;20058;-42
2022/08/03 01:41:49;;;;;;;2.17;1.77;;;23.50;47.40;;;;;;4981727;28;20050;-43
2022/08/03 01:44:17;;;;;;;4.25;2.13;;;23.40;47.60;;;;;;4980849;28;20054;-42
2022/08/03 01:46:50;;;;;;;3.47;2.08;;;23.40;47.60;;;;;;4980825;28;20521;-44
2022/08/03 01:49:17;;;;;;;2.83;2.10;;;23.40;47.60;;;;;;4983663;28;20422;-42
2022/08/03 01:51:47;;;;;;;1.98;1.77;;;23.40;47.60;;;;;;4978667;28;20065;-44
2022/08/03 01:54:15;;;;;;;2.65;2.00;;;23.40;47.70;;;;;;4982200;28;20065;-41
2022/08/03 01:56:44;;;;;;;2.08;1.88;;;23.30;47.80;;;;;;4983411;28;20057;-44
2022/08/03 01:59:13;;;;;;;2.13;1.92;;;23.30;47.90;;;;;;4980848;28;20055;-43
2022/08/03 02:01:41;;;;;;;2.00;1.80;;;23.30;47.90;;;;;;4979185;28;20458;-44
2022/08/03 02:07:34;;;;;;;2.60;1.90;;;23.20;48.00;;;;;;4982502;28;20475;-49
2022/08/03 02:10:05;;;;;;;2.17;1.98;;;23.20;48.00;;;;;;4981047;28;20047;-47
2022/08/03 02:12:35;;;;;;;2.58;2.10;;;23.20;48.00;;;;;;4979626;28;20053;-42
2022/08/03 02:15:03;;;;;;;3.30;2.22;;;23.10;48.10;;;;;;4979316;28;20054;-43
2022/08/03 02:17:32;;;;;;;2.20;2.00;;;23.10;48.20;;;;;;4985274;28;20525;-42
2022/08/03 02:20:02;;;;;;;2.63;2.10;;;23.10;48.20;;;;;;4983709;28;20054;-42
2022/08/03 02:22:32;;;;;;;2.67;1.92;;;23.00;48.20;;;;;;4985017;28;20050;-43
2022/08/03 02:25:18;;;;;;;2.83;2.10;;;23.10;48.30;;;;;;4984994;28;20081;-42
2022/08/03 02:27:51;;;;;;;4.10;2.22;;;23.00;48.40;;;;;;4983769;28;20058;-42
2022/08/03 02:30:20;;;;;;;3.17;2.20;;;23.00;48.40;;;;;;4982866;28;20050;-43
2022/08/03 02:32:57;;;;;;;2.40;2.17;;;23.00;48.30;;;;;;4984532;28;20058;-44
2022/08/03 02:35:28;;;;;;;2.95;2.35;;;23.00;48.50;;;;;;4982734;28;20058;-44
2022/08/03 02:38:02;;;;;;;2.97;2.42;;;22.90;48.50;;;;;;4980619;28;20061;-42
2022/08/03 02:40:31;;;;;;;2.35;2.13;;;22.90;48.60;;;;;;4978106;28;20054;-43
2022/08/03 02:43:03;;;;;;;2.33;1.85;;;22.90;48.60;;;;;;4982355;28;20410;-43
2022/08/03 02:45:33;;;;;;;5.78;2.42;;;22.90;48.60;;;;;;4985348;28;20057;-44
2022/08/03 02:48:05;;;;;;;2.47;2.13;;;22.90;48.60;;;;;;4982278;28;20061;-44
2022/08/03 02:50:34;;;;;;;2.95;1.95;;;22.80;48.70;;;;;;4985536;28;20050;-43
2022/08/03 02:53:04;;;;;;;2.97;2.15;;;22.80;48.70;;;;;;4984833;28;20047;-44
2022/08/03 02:55:34;;;;;;;3.33;2.45;;;22.80;48.80;;;;;;4986226;28;20069;-44
2022/08/03 02:58:02;;;;;;;2.97;2.03;;;22.80;48.90;;;;;;4980814;28;20063;-42
2022/08/03 03:00:31;;;;;;;2.85;2.20;;;22.80;48.90;;;;;;4983482;28;20057;-44
2022/08/03 03:03:01;;;;;;;3.50;2.30;;;22.80;48.90;;;;;;4984653;28;20054;-44
2022/08/03 03:05:29;;;;;;;3.38;2.10;;;22.70;48.90;;;;;;4985100;28;20054;-42
2022/08/03 03:07:56;;;;;;;2.60;2.10;;;22.70;49.00;;;;;;4985515;28;20054;-46
2022/08/03 03:10:26;;;;;;;2.45;2.10;;;22.70;49.10;;;;;;4982994;28;20062;-43
2022/08/03 03:12:56;;;;;;;3.08;2.08;;;22.70;49.20;;;;;;4982751;28;20510;-44
2022/08/03 03:15:25;;;;;;;3.10;2.30;;;22.70;49.20;;;;;;4984047;28;20422;-46
2022/08/03 03:17:53;;;;;;;4.40;2.75;;;22.60;49.20;;;;;;4983601;28;20391;-44
2022/08/03 03:20:21;;;;;;;4.15;2.33;;;22.60;49.20;;;;;;4984728;28;20062;-42
2022/08/03 03:22:50;;;;;;;2.65;2.35;;;22.60;49.20;;;;;;4981289;28;20483;-43
2022/08/03 03:25:19;;;;;;;4.32;2.30;;;22.60;49.30;;;;;;4984148;28;20061;-41
2022/08/03 03:27:48;;;;;;;2.75;2.20;;;22.60;49.30;;;;;;4982767;28;20380;-43
2022/08/03 03:30:15;;;;;;;2.70;2.30;;;22.50;49.40;;;;;;4982104;28;20058;-44
2022/08/03 03:32:42;;;;;;;2.90;2.28;;;22.50;49.30;;;;;;4998859;28;20057;-45
2022/08/03 03:35:10;;;;;;;2.55;2.33;;;22.50;49.40;;;;;;5004413;28;20056;-43
2022/08/03 03:37:37;;;;;;;2.55;2.25;;;22.50;49.40;;;;;;5000663;28;20053;-44
2022/08/03 03:40:07;;;;;;;3.47;2.45;;;22.40;49.40;;;;;;5000096;28;20057;-43
2022/08/03 03:42:37;;;;;;;3.50;2.30;;;22.40;49.50;;;;;;4998713;28;20793;-47
2022/08/03 03:45:07;;;;;;;2.92;2.40;;;22.40;49.60;;;;;;4998600;28;20053;-45
2022/08/03 03:47:35;;;;;;;2.33;2.03;;;22.40;49.70;;;;;;4993561;28;20065;-44
2022/08/03 03:50:02;;;;;;;3.42;2.38;;;22.40;49.70;;;;;;4996168;28;20057;-43
2022/08/03 03:52:31;;;;;;;2.83;2.53;;;22.30;49.70;;;;;;5001487;28;20050;-44
2022/08/03 03:54:58;;;;;;;6.90;2.20;;;22.30;49.80;;;;;;5001803;28;20072;-42
2022/08/03 03:57:26;;;;;;;2.75;2.45;;;22.30;49.80;;;;;;5002027;28;20068;-42
2022/08/03 03:59:53;;;;;;;3.25;2.80;;;22.30;49.80;;;;;;5000660;28;20588;-42
2022/08/03 04:02:22;;;;;;;2.97;2.47;;;22.30;49.90;;;;;;4995508;28;20050;-42
2022/08/03 04:13:15;;;;;;;2.58;2.38;;;22.20;49.90;;;;;;4997437;28;20057;-42
2022/08/03 04:15:43;;;;;;;3.88;2.45;;;22.20;50.10;;;;;;5001967;28;20060;-44
2022/08/03 04:18:15;;;;;;;2.40;2.20;;;22.20;50.10;;;;;;4992453;28;20050;-41
2022/08/03 04:20:45;;;;;;;2.63;2.42;;;22.20;50.20;;;;;;5000523;28;20061;-44
2022/08/03 04:23:15;;;;;;;2.95;2.22;;;22.20;50.20;;;;;;5002241;28;20069;-44
2022/08/03 04:25:43;;;;;;;3.75;2.97;;;22.20;50.10;;;;;;5002881;28;20058;-45
2022/08/03 04:28:11;;;;;;;3.65;2.72;;;22.10;50.00;;;;;;4996780;28;20049;-43
2022/08/03 04:30:46;;;;;;;3.05;2.60;;;22.10;50.10;;;;;;4999820;28;20073;-42
2022/08/03 04:33:16;;;;;;;3.40;2.20;;;22.10;50.20;;;;;;5003405;28;20046;-42
2022/08/03 04:35:46;;;;;;;6.57;2.60;;;22.10;50.20;;;;;;5002309;28;20060;-44
2022/08/03 04:38:15;;;;;;;2.63;2.20;;;22.10;50.20;;;;;;5000257;28;20046;-44
2022/08/03 04:40:44;;;;;;;2.85;2.22;;;22.10;50.20;;;;;;4997961;28;20418;-44
2022/08/03 04:43:14;;;;;;;5.50;2.50;;;22.10;50.10;;;;;;4999862;28;20060;-45
2022/08/03 04:45:43;;;;;;;3.80;2.42;;;22.10;50.20;;;;;;5001070;28;20418;-41
2022/08/03 04:48:10;;;;;;;3.13;2.15;;;22.10;50.20;;;;;;4997482;28;20512;-43
2022/08/03 04:50:40;;;;;;;2.63;2.40;;;22.10;50.20;;;;;;4993351;28;20053;-46
2022/08/03 04:53:08;;;;;;;4.72;2.28;;;22.10;50.30;;;;;;4991136;28;20050;-46
2022/08/03 04:55:36;;;;;;;3.85;2.53;;;22.10;50.30;;;;;;5002469;28;20058;-47
2022/08/03 04:58:05;;;;;;;2.88;2.35;;;22.10;50.30;;;;;;4994748;28;20047;-44
2022/08/03 05:00:32;;;;;;;3.05;2.67;;;22.10;50.40;;;;;;5001613;28;20065;-44
2022/08/03 05:02:59;;;;;;;5.90;2.35;;;22.10;50.40;;;;;;5001971;28;20607;-43
2022/08/03 05:05:27;;;;;;;4.72;2.97;;;22.10;50.40;;;;;;5003127;28;20062;-42
2022/08/03 05:07:56;;;;;;;4.82;2.60;;;22.10;50.40;;;;;;5002054;28;20064;-45
2022/08/03 05:10:23;;;;;;;4.75;2.60;;;22.10;50.50;;;;;;4989015;28;20054;-45
2022/08/03 05:12:51;;;;;;;3.60;2.88;;;22.10;50.60;;;;;;4984420;28;20050;-42
2022/08/03 05:15:18;;;;;;;4.10;2.88;;;22.10;50.80;;;;;;4984490;28;20054;-45
2022/08/03 05:17:45;;;;;;;2.75;2.50;;;22.10;50.80;;;;;;4983351;28;20066;-46
2022/08/03 05:20:12;;;;;;;3.40;3.10;;;22.10;51.00;;;;;;4982448;28;20065;-45
2022/08/03 05:22:40;;;;;;;4.35;2.40;;;22.10;51.20;;;;;;4985131;28;20521;-42
2022/08/03 05:25:09;;;;;;;6.20;3.10;;;22.10;51.20;;;;;;4986864;28;20046;-46
2022/08/03 05:27:36;;;;;;;8.60;3.13;;;22.10;51.30;;;;;;4982643;28;20060;-43
2022/08/03 05:30:04;;;;;;;4.55;3.00;;;22.20;51.50;;;;;;4986869;28;20057;-42
2022/08/03 05:32:32;;;;;;;4.78;2.65;;;22.20;51.80;;;;;;4986634;28;20593;-45
2022/08/03 05:34:59;;;;;;;6.60;3.40;;;22.20;51.90;;;;;;4983698;28;20423;-43
2022/08/03 05:37:27;;;;;;;4.22;3.03;;;22.20;52.20;;;;;;4987571;28;20812;-45
2022/08/03 05:39:54;;;;;;;4.28;2.60;;;22.30;52.40;;;;;;4983239;28;20058;-44
2022/08/03 05:42:22;;;;;;;2.92;2.40;;;22.30;52.70;;;;;;4981387;28;20050;-42
2022/08/03 05:44:50;;;;;;;3.40;2.90;;;22.30;52.80;;;;;;4981345;28;20054;-42
2022/08/03 05:47:17;;;;;;;2.83;2.30;;;22.30;52.90;;;;;;4984900;28;20050;-45
2022/08/03 05:49:44;;;;;;;2.80;2.47;;;22.30;53.00;;;;;;4985983;28;20399;-44
2022/08/03 05:52:11;;;;;;;3.78;3.08;;;22.40;53.20;;;;;;4988879;28;20050;-45
2022/08/03 05:54:38;;;;;;;4.18;3.30;;;22.40;53.30;;;;;;4990597;28;20088;-45
2022/08/03 05:57:06;;;;;;;5.10;2.70;;;22.40;53.50;;;;;;4987671;28;20058;-45
2022/08/03 05:59:34;;;;;;;3.70;2.75;;;22.50;53.60;;;;;;4982799;28;20074;-42
2022/08/03 06:02:01;;;;;;;2.90;2.60;;;22.50;53.80;;;;;;4985899;28;20402;-46
2022/08/03 06:04:29;;;;;;;6.30;3.28;;;22.60;54.00;;;;;;4986861;28;20065;-47
2022/08/03 06:06:56;;;;;;;3.15;2.80;;;22.70;54.20;;;;;;4986566;28;20524;-42
2022/08/03 06:09:23;;;;;;;3.45;2.70;;;22.70;54.40;;;;;;4987727;28;20052;-44
2022/08/03 06:11:50;;;;;;;4.00;2.65;;;22.80;53.50;;;;;;4988387;28;20081;-42
2022/08/03 06:14:17;;;;;;;3.22;2.53;;;22.80;53.70;;;;;;4985394;28;20057;-41
2022/08/03 06:16:46;;;;;;;6.20;2.90;;;22.90;53.80;;;;;;4988625;28;20061;-43
2022/08/03 06:19:13;;;;;;;2.55;2.35;;;22.90;53.80;;;;;;4989049;28;20058;-41
2022/08/03 06:21:40;;;;;;;3.35;2.70;;;23.00;53.80;;;;;;4988008;28;20046;-42
2022/08/03 06:24:08;;;;;;;2.83;2.63;;;23.00;53.80;;;;;;4988481;28;20046;-44
2022/08/03 06:26:35;;;;;;;2.75;2.53;;;23.10;54.00;;;;;;4983997;28;20413;-41
2022/08/03 06:29:02;;;;;;;4.60;2.70;;;23.20;54.10;;;;;;4984519;28;20059;-43
2022/08/03 06:31:30;;;;;;;3.67;2.70;;;23.30;54.00;;;;;;4988951;28;20049;-45
2022/08/03 06:33:59;;;;;;;3.20;2.72;;;23.30;54.10;;;;;;4989843;28;20421;-42
2022/08/03 06:36:30;;;;;;;2.38;2.17;;;23.40;54.20;;;;;;4985195;28;20057;-45
2022/08/03 06:38:57;;;;;;;3.25;2.35;;;23.40;54.00;;;;;;4982998;28;20401;-43
2022/08/03 06:41:25;;;;;;;2.95;2.40;;;23.50;54.20;;;;;;4973916;28;20058;-43
2022/08/03 06:43:52;;;;;;;4.22;3.13;;;23.50;53.90;;;;;;4974105;28;20494;-42
2022/08/03 06:46:19;;;;;;;3.50;2.45;;;23.60;53.80;;;;;;4986297;28;20054;-41
2022/08/03 06:48:47;;;;;;;3.03;2.63;;;23.70;53.50;;;;;;4973535;28;20061;-42
2022/08/03 06:51:15;;;;;;;2.42;2.22;;;23.70;53.50;;;;;;4968662;28;20054;-45
2022/08/03 06:53:42;;;;;;;4.65;2.45;;;23.80;53.50;;;;;;4970813;28;20057;-42
2022/08/03 06:56:10;;;;;;;4.22;2.60;;;23.80;53.20;;;;;;4975790;28;20055;-42
2022/08/03 06:58:37;;;;;;;4.53;2.78;;;23.90;53.30;;;;;;4974061;28;21091;-42
2022/08/03 07:01:04;;;;;;;5.47;2.58;;;24.00;53.00;;;;;;4971216;28;20058;-42
2022/08/03 07:03:31;;;;;;;2.70;2.25;;;24.00;52.90;;;;;;4972237;28;20054;-42
2022/08/03 07:05:58;;;;;;;3.10;2.70;;;24.10;52.80;;;;;;4977951;28;20410;-42
2022/08/03 07:08:27;;;;;;;2.90;2.05;;;24.10;52.80;;;;;;4976619;28;20058;-41
2022/08/03 07:10:54;;;;;;;5.80;2.10;;;24.20;52.70;;;;;;4972306;28;21228;-43
2022/08/03 07:13:21;;;;;;;4.03;2.53;;;24.30;52.70;;;;;;4979902;28;20057;-46
2022/08/03 07:15:49;;;;;;;8.77;2.40;;;24.30;52.50;;;;;;4970839;28;20489;-43
2022/08/03 07:18:16;;;;;;;2.65;2.08;;;24.40;52.20;;;;;;4977001;28;20058;-42
2022/08/03 07:20:43;;;;;;;2.78;2.25;;;24.50;51.90;;;;;;4976327;28;20067;-43
2022/08/03 07:23:10;;;;;;;2.80;2.20;;;24.50;51.70;;;;;;4974850;28;20631;-45
2022/08/03 07:25:39;;;;;;;5.25;2.08;;;24.60;51.70;;;;;;4975473;28;20070;-45
2022/08/03 07:28:07;;;;;;;2.75;2.17;;;24.70;51.50;;;;;;4980154;28;20053;-42
2022/08/03 07:30:34;;;;;;;3.95;2.53;;;24.80;51.20;;;;;;4973243;28;20053;-44
2022/08/03 07:33:02;;;;;;;4.20;2.22;;;24.80;51.30;;;;;;4974659;28;20050;-43
2022/08/03 07:35:29;;;;;;;3.03;2.00;;;25.00;51.20;;;;;;4979586;28;20711;-46
2022/08/03 07:37:56;;;;;;;2.72;1.90;;;25.00;51.10;;;;;;4967823;28;20541;-43
2022/08/03 07:40:23;;;;;;;3.20;1.85;;;25.10;51.00;;;;;;4967202;28;20058;-43
2022/08/03 07:42:52;;;;;;;3.33;2.17;;;25.20;50.80;;;;;;4983054;28;20057;-44
2022/08/03 07:45:20;;;;;;;3.05;2.13;;;25.30;50.90;;;;;;4974389;28;20057;-42
2022/08/03 07:47:47;;;;;;;2.63;2.30;;;25.40;50.50;;;;;;4984453;28;20049;-47
2022/08/03 07:50:14;;;;;;;2.17;1.92;;;25.50;50.10;;;;;;4971158;28;20640;-44
2022/08/03 07:52:48;;;;;;;4.03;2.30;;;25.60;50.10;;;;;;4980744;28;20058;-44
2022/08/03 07:55:15;;;;;;;4.35;2.13;;;25.70;50.10;;;;;;4980740;28;20057;-44
2022/08/03 07:57:43;;;;;;;1.90;1.70;;;25.80;50.20;;;;;;4969889;28;20058;-42
2022/08/03 08:00:16;;;;;;;2.70;2.20;;;25.90;49.90;;;;;;4980138;28;20498;-42
2022/08/03 08:02:44;;;;;;;12.02;1.85;;;26.00;49.90;;;;;;4994009;28;20057;-42
2022/08/03 08:05:11;;;;;;;2.78;2.10;;;26.10;49.80;;;;;;4967360;28;20054;-44
2022/08/03 08:07:39;;;;;;;7.72;2.25;;;26.20;49.20;;;;;;4977271;28;21374;-44
2022/08/03 08:10:09;;;;;;;4.15;2.42;;;26.30;49.20;;;;;;4976488;28;20065;-46
2022/08/03 08:12:37;;;;;;;3.97;1.90;;;26.30;48.90;;;;;;4976123;28;20054;-45
2022/08/03 08:15:05;;;;;;;8.45;2.88;;;26.40;48.70;;;;;;4979276;28;20061;-46
2022/08/03 08:17:43;;;;;;;7.70;2.35;;;26.60;47.80;;;;;;4973906;28;20073;-43
2022/08/03 08:20:12;;;;;;;3.22;1.80;;;26.70;47.20;;;;;;4979344;28;20058;-43
2022/08/03 08:22:39;;;;;;;2.90;1.85;;;26.80;47.90;;;;;;4984421;28;20049;-41
2022/08/03 08:25:07;;;;;;;6.65;1.83;;;26.90;47.10;;;;;;4993732;28;20058;-42
2022/08/03 08:27:40;;;;;;;2.05;1.83;;;27.10;46.80;;;;;;4989065;28;20497;-43
2022/08/03 08:30:08;;;;;;;2.45;1.75;;;27.20;46.70;;;;;;4981342;28;20054;-44
2022/08/03 08:32:36;;;;;;;1.98;1.70;;;27.30;46.30;;;;;;4979951;28;20065;-47
2022/08/03 08:35:06;;;;;;;1.92;1.50;;;27.30;46.10;;;;;;4982726;28;20137;-43
2022/08/03 08:37:34;;;;;;;4.22;2.10;;;27.40;45.60;;;;;;4981850;28;20073;-42
2022/08/03 08:40:01;;;;;;;2.10;1.85;;;27.50;45.30;;;;;;4975908;28;20057;-43
2022/08/03 08:42:29;;;;;;;3.40;2.17;;;27.60;45.50;;;;;;4980743;28;20421;-45
2022/08/03 08:44:56;;;;;;;2.97;1.65;;;27.60;45.20;;;;;;4981081;28;20058;-43
2022/08/03 08:47:25;;;;;;;2.55;1.80;;;27.70;45.20;;;;;;4982287;28;20057;-45
2022/08/03 08:49:54;;;;;;;2.80;1.80;;;27.80;45.00;;;;;;4975272;28;20422;-44
2022/08/03 08:52:26;;;;;;;1.80;1.70;;;27.80;45.00;;;;;;4973825;28;20065;-42
2022/08/03 08:54:56;;;;;;;2.05;1.55;;;27.90;44.40;;;;;;4977378;28;20061;-42
2022/08/03 08:57:28;;;;;;;4.53;1.65;;;28.00;44.40;;;;;;4973138;28;20429;-43
2022/08/03 08:59:56;;;;;;;5.32;1.88;;;28.00;44.10;;;;;;4971227;28;20095;-42
2022/08/03 09:02:24;;;;;;;1.83;1.55;;;28.10;44.10;;;;;;4975418;28;20146;-43
2022/08/03 09:04:51;;;;;;;1.90;1.70;;;28.10;43.80;;;;;;4974438;28;20509;-45
2022/08/03 09:07:18;;;;;;;4.15;1.77;;;28.10;43.40;;;;;;4982999;28;20065;-46
2022/08/03 09:09:47;;;;;;;2.45;1.52;;;28.20;43.00;;;;;;4984039;28;20443;-43
2022/08/03 09:12:14;;;;;;;3.25;1.92;;;28.20;43.10;;;;;;4979309;28;20050;-45
2022/08/03 09:14:42;;;;;;;2.08;1.70;;;28.20;42.90;;;;;;4981928;28;20054;-45
2022/08/03 09:17:09;;;;;;;4.25;1.77;;;28.30;42.60;;;;;;4971825;28;20824;-45
2022/08/03 09:19:36;;;;;;;2.28;1.70;;;28.30;42.80;;;;;;4977557;28;20403;-43
2022/08/03 09:22:12;;;;;;;1.60;1.50;;;28.40;42.80;;;;;;4982179;28;20058;-43
2022/08/03 09:24:57;;;;;;;2.75;1.55;;;28.50;42.50;;;;;;4974058;28;20050;-44
2022/08/03 09:27:24;;;;;;;4.90;1.90;;;28.60;42.30;;;;;;4980482;28;20047;-43
2022/08/03 09:29:53;;;;;;;2.28;1.50;;;28.60;42.10;;;;;;4972793;28;21039;-44
2022/08/03 09:32:21;;;;;;;5.35;1.90;;;28.70;41.70;;;;;;4990029;28;20062;-46
2022/08/03 09:34:50;;;;;;;2.95;2.00;;;28.80;40.80;;;;;;4975858;28;20065;-46
2022/08/03 09:37:19;;;;;;;2.97;1.75;;;28.80;40.80;;;;;;4980213;28;20525;-46
2022/08/03 09:39:47;;;;;;;2.65;1.55;;;28.90;39.70;;;;;;4974646;28;20059;-43
2022/08/03 09:42:17;;;;;;;2.47;1.77;;;29.10;39.50;;;;;;4989138;28;20057;-43
2022/08/03 09:44:47;;;;;;;5.68;2.20;;;29.20;39.50;;;;;;4986855;28;21492;-42
2022/08/03 09:47:16;;;;;;;188.43;19.05;;;29.30;39.70;;;;;;4994161;28;20307;-46
2022/08/03 09:49:57;;;;;;;9.65;3.42;;;29.40;40.00;;;;;;4972870;28;20058;-42
2022/08/03 09:52:30;;;;;;;2.88;1.70;;;29.50;39.90;;;;;;4982132;28;20494;-42
2022/08/03 09:54:58;;;;;;;2.05;1.55;;;29.60;39.70;;;;;;4996877;28;20057;-46
2022/08/03 09:57:29;;;;;;;2.83;1.83;;;29.70;39.50;;;;;;4989502;28;20064;-43
2022/08/03 10:00:09;;;;;;;6.97;1.80;;;29.70;39.40;;;;;;4982057;28;20054;-43
2022/08/03 10:02:37;;;;;;;2.83;1.90;;;29.70;39.30;;;;;;4971952;28;20494;-47
2022/08/03 10:05:06;;;;;;;6.13;1.92;;;29.80;37.90;;;;;;4969498;28;20061;-45
2022/08/03 10:07:43;;;;;;;2.80;1.40;;;29.70;38.90;;;;;;4988404;28;20061;-42
2022/08/03 10:10:10;;;;;;;4.10;1.80;;;29.80;38.40;;;;;;4999202;28;20058;-50
2022/08/03 10:12:40;;;;;;;7.55;1.80;;;29.80;37.50;;;;;;4993237;28;20061;-44
2022/08/03 10:15:09;;;;;;;3.90;1.98;;;29.90;36.90;;;;;;4996307;28;20537;-44
2022/08/03 10:17:36;;;;;;;2.75;1.58;;;29.90;37.20;;;;;;4998042;28;20062;-46
2022/08/03 10:20:05;;;;;;;3.78;1.33;;;30.00;36.80;;;;;;4994491;28;20058;-42
2022/08/03 10:22:35;;;;;;;3.15;2.17;;;30.00;36.40;;;;;;4992148;28;20410;-42
2022/08/03 10:25:06;;;;;;;2.45;1.73;;;30.10;36.70;;;;;;4998622;28;20050;-44
2022/08/03 10:27:36;;;;;;;6.35;1.73;;;30.20;36.90;;;;;;4989849;28;20861;-43
2022/08/03 10:30:08;;;;;;;2.50;1.60;;;30.30;36.90;;;;;;4991679;28;20069;-42
2022/08/03 10:32:40;;;;;;;1.77;1.50;;;30.30;35.90;;;;;;4999475;28;20058;-43
2022/08/03 10:35:11;;;;;;;2.10;1.40;;;30.50;37.20;;;;;;4996267;28;20061;-42
2022/08/03 10:37:42;;;;;;;3.40;1.60;;;30.50;37.50;;;;;;4995132;28;20061;-46
2022/08/03 10:40:15;;;;;;;3.20;1.65;;;30.60;37.20;;;;;;4990668;28;20054;-47
2022/08/03 10:42:43;;;;;;;2.63;1.90;;;30.60;35.90;;;;;;4989215;28;20057;-45
2022/08/03 10:45:19;;;;;;;6.63;1.67;;;30.60;36.80;;;;;;4987667;28;20445;-46
2022/08/03 10:47:48;;;;;;;3.63;1.70;;;30.70;35.80;;;;;;4988475;28;20526;-46
2022/08/03 10:50:16;;;;;;;3.45;1.70;;;30.70;35.50;;;;;;4984326;28;20073;-45
2022/08/03 10:52:57;;;;;;;2.47;1.60;;;30.70;35.20;;;;;;4996779;28;20058;-44
2022/08/03 10:58:44;;;;;;;2.28;1.48;;;30.80;35.20;;;;;;5003507;28;20628;-43
2022/08/03 11:01:13;;;;;;;4.35;1.77;;;30.80;35.80;;;;;;4981960;28;20421;-45
2022/08/03 11:04:14;;;;;;;3.45;1.30;;;30.90;35.90;;;;;;4998695;28;20074;-42
2022/08/03 11:06:42;;;;;;;5.28;2.00;;;30.90;36.00;;;;;;4989099;28;20054;-43
2022/08/03 11:09:17;;;;;;;3.65;1.80;;;31.00;36.40;;;;;;4978814;28;20887;-43
2022/08/03 11:11:45;;;;;;;4.35;1.65;;;31.00;35.80;;;;;;4975025;28;20059;-43
2022/08/03 11:14:14;;;;;;;3.42;1.88;;;31.00;35.10;;;;;;4984202;28;20065;-42
2022/08/03 11:16:45;;;;;;;3.28;1.85;;;31.10;35.50;;;;;;4976874;28;20414;-49
2022/08/03 11:19:14;;;;;;;7.13;1.88;;;31.10;34.40;;;;;;4975419;28;20392;-48
2022/08/03 11:21:55;;;;;;;2.72;1.80;;;31.20;34.60;;;;;;4976871;28;20058;-42
2022/08/03 11:25:11;;;;;;;3.45;1.63;;;31.30;35.50;;;;;;4977576;28;20079;-42
2022/08/03 11:27:39;;;;;;;2.67;1.52;;;31.30;35.50;;;;;;4976853;28;20991;-46
2022/08/03 11:30:07;;;;;;;2.72;1.42;;;31.40;36.00;;;;;;4973154;28;20054;-42
2022/08/03 11:32:56;;;;;;;1.73;1.40;;;31.40;35.70;;;;;;4978928;28;20560;-43
2022/08/03 11:35:25;;;;;;;2.38;1.60;;;31.50;35.70;;;;;;4975714;28;20054;-42
2022/08/03 11:38:10;;;;;;;3.13;1.63;;;31.50;35.80;;;;;;4971496;28;20518;-43
2022/08/03 11:40:45;;;;;;;2.22;1.60;;;31.60;34.90;;;;;;4999546;28;20058;-42
2022/08/03 11:43:46;;;;;;;4.40;2.05;;;31.60;35.60;;;;;;5001530;28;20053;-47
2022/08/03 11:46:18;;;;;;;2.13;1.45;;;31.70;34.50;;;;;;5004032;28;20494;-46
2022/08/03 11:48:48;;;;;;;2.38;1.60;;;31.70;34.20;;;;;;4997666;28;20065;-43
2022/08/03 11:51:24;;;;;;;2.75;1.88;;;31.80;35.00;;;;;;4995168;28;20390;-44
2022/08/03 11:53:56;;;;;;;3.47;1.92;;;31.80;34.20;;;;;;4978979;28;20050;-43
2022/08/03 11:56:23;;;;;;;2.47;1.58;;;31.90;35.00;;;;;;4980292;28;20050;-42
2022/08/03 11:58:52;;;;;;;1.63;1.40;;;31.90;35.30;;;;;;4980289;28;21245;-42
2022/08/03 12:01:20;;;;;;;2.35;1.50;;;31.90;35.80;;;;;;4979526;28;20069;-44
2022/08/03 12:03:49;;;;;;;5.78;2.05;;;32.00;35.00;;;;;;4979028;28;20060;-44
2022/08/03 12:06:17;;;;;;;1.90;1.70;;;32.00;34.30;;;;;;4982722;28;20057;-44
2022/08/03 12:08:47;;;;;;;4.18;1.65;;;32.00;34.90;;;;;;4983346;28;20066;-42
2022/08/03 12:11:15;;;;;;;2.22;1.60;;;32.00;35.20;;;;;;4978461;28;20612;-45
2022/08/03 12:13:44;;;;;;;2.03;1.58;;;32.10;35.30;;;;;;4977764;28;20054;-42
2022/08/03 12:16:17;;;;;;;2.30;1.58;;;32.10;34.80;;;;;;4976962;28;20065;-45
2022/08/03 12:18:45;;;;;;;;;;;32.20;34.80;;;;;;4980799;28;20065;-44
2022/08/03 12:21:13;;;;;;;7.32;1.83;;;32.20;35.40;;;;;;4978300;28;20837;-43
2022/08/03 12:23:40;;;;;;;2.13;1.40;;;32.20;34.80;;;;;;4976352;28;20054;-42
2022/08/03 12:26:09;;;;;;;3.38;1.98;;;32.30;34.70;;;;;;4982162;28;20522;-43
2022/08/03 12:28:37;;;;;;;3.33;1.75;;;32.20;33.60;;;;;;4994868;28;20419;-42
2022/08/03 12:31:08;;;;;;;1.60;1.50;;;32.30;34.50;;;;;;4992188;28;20054;-41
2022/08/03 12:33:56;;;;;;;3.58;1.45;;;32.30;34.70;;;;;;4998038;28;20410;-47
2022/08/03 12:36:26;;;;;;;2.55;1.65;;;32.30;34.30;;;;;;5002805;28;20069;-44
2022/08/03 12:38:58;;;;;;;2.90;1.80;;;32.30;34.70;;;;;;5001628;28;20058;-41
2022/08/03 12:41:30;;;;;;;2.30;1.73;;;32.20;34.80;;;;;;4999612;28;20064;-41
2022/08/03 12:43:58;;;;;;;3.42;1.63;;;32.30;33.90;;;;;;5001578;28;20438;-44
2022/08/03 12:46:31;;;;;;;2.05;1.67;;;32.20;34.20;;;;;;5000507;28;20062;-44
2022/08/03 12:49:04;;;;;;;2.03;1.70;;;32.20;35.10;;;;;;4995321;28;20054;-44
2022/08/03 12:51:34;;;;;;;4.85;1.88;;;32.30;35.00;;;;;;4999084;28;20397;-44
2022/08/03 12:54:02;;;;;;;2.95;1.80;;;32.40;35.30;;;;;;4996829;28;20062;-47
2022/08/03 12:56:30;;;;;;;3.75;2.03;;;32.40;34.90;;;;;;5002793;28;20057;-42
2022/08/03 12:58:57;;;;;;;2.08;1.80;;;32.50;34.40;;;;;;5000231;28;20055;-45
2022/08/03 13:01:26;;;;;;;2.47;1.60;;;32.50;33.70;;;;;;4994668;28;20058;-43
2022/08/03 13:03:54;;;;;;;2.72;1.40;;;32.60;34.70;;;;;;4999817;28;20054;-42
2022/08/03 13:06:23;;;;;;;5.07;1.65;;;32.70;34.60;;;;;;4999932;28;20054;-45
2022/08/03 13:09:03;;;;;;;3.20;1.40;;;32.70;33.80;;;;;;5001606;28;20064;-42
2022/08/03 13:11:30;;;;;;;2.08;1.50;;;32.80;33.80;;;;;;4999998;28;20061;-43
2022/08/03 13:13:57;;;;;;;1.88;1.40;;;32.80;34.30;;;;;;4998813;28;20053;-47
2022/08/03 13:16:24;;;;;;;1.60;1.50;;;32.80;34.20;;;;;;4996622;28;20049;-46